Time;durP1;ratioP1;P1;durP2;ratioP2;P2;SDS_P1;SDS_P2;PMS_P1;PMS_P2;Temp;Humidity;BMP_temperature;BMP_pressure;BME280_temperature;BME280_humidity;BME280_pressure;Samples;Min_cycle;Max_cycle;Signal;HPM_P1;HPM_P2
2021/11/19 00:01:14;;;;;;;16.80;10.60;;;;;;;6.29;72.22;95194.97;829027;71;30425;-80
2021/11/19 00:16:12;;;;;;;17.02;12.75;;;;;;;6.66;72.11;95260.82;827819;71;29174;-77
2021/11/19 00:31:17;;;;;;;16.48;12.18;;;;;;;6.68;71.71;95263.97;825850;71;31816;-79
2021/11/19 00:46:19;;;;;;;16.15;11.20;;;;;;;6.49;70.84;95230.92;832780;70;32802;-78
2021/11/19 01:01:19;;;;;;;13.15;10.82;;;;;;;6.77;69.93;95261.22;834035;71;33238;-79
2021/11/19 01:16:11;;;;;;;14.73;10.72;;;;;;;6.79;69.97;95259.66;827971;71;29317;-77
2021/11/19 01:31:18;;;;;;;13.93;10.03;;;;;;;6.83;70.21;95265.95;825977;71;32726;-78
2021/11/19 01:46:13;;;;;;;14.68;9.98;;;;;;;6.86;70.18;95248.53;828198;71;29406;-78
2021/11/19 02:01:20;;;;;;;17.05;11.22;;;;;;;6.89;70.27;95239.41;827113;71;32791;-79
2021/11/19 02:16:12;;;;;;;10.35;8.60;;;;;;;6.85;70.45;95233.11;833857;71;30577;-79
2021/11/19 02:31:17;;;;;;;14.13;10.55;;;;;;;6.82;70.54;95231.27;827784;71;29313;-77
2021/11/19 02:46:20;;;;;;;11.00;9.60;;;;;;;6.85;70.37;95225.29;833429;71;32803;-77
2021/11/19 03:16:15;;;;;;;15.23;9.95;;;;;;;6.74;68.08;95212.14;827661;71;32725;-77
2021/11/19 03:31:13;;;;;;;15.13;11.00;;;;;;;6.78;67.71;95217.14;827552;71;29711;-79
2021/11/19 03:46:18;;;;;;;14.03;10.28;;;;;;;6.73;67.71;95221.52;827065;71;32755;-79
2021/11/19 04:01:17;;;;;;;16.37;11.20;;;;;;;6.73;66.27;95207.16;833533;71;32792;-79
2021/11/19 04:16:18;;;;;;;15.10;11.35;;;;;;;6.72;65.51;95210.30;833204;71;33243;-77
2021/11/19 04:31:19;;;;;;;16.48;12.10;;;;;;;6.72;65.51;95215.52;821217;71;38603;-78
2021/11/19 04:46:10;;;;;;;14.65;11.43;;;;;;;6.76;64.80;95202.25;827885;71;30343;-78
2021/11/19 05:01:21;;;;;;;15.88;11.73;;;;;;;6.70;64.47;95210.28;830058;70;30256;-80
2021/11/19 05:16:13;;;;;;;11.78;10.03;;;;;;;6.71;64.30;95209.23;833300;71;31503;-78
2021/11/19 05:31:13;;;;;;;18.32;11.00;;;;;;;6.71;63.63;95225.69;826724;71;30352;-78
2021/11/19 05:46:10;;;;;;;16.02;10.75;;;;;;;6.93;62.28;95220.41;817391;71;30432;-84
2021/11/19 06:01:11;;;;;;;10.65;8.40;;;;;;;6.98;59.88;95221.78;833628;71;29475;-83
2021/11/19 06:16:12;;;;;;;12.05;8.13;;;;;;;7.01;57.03;95237.45;828378;71;30336;-83
2021/11/19 06:31:13;;;;;;;8.58;7.00;;;;;;;7.10;56.22;95240.42;827965;71;29716;-83
2021/11/19 06:46:14;;;;;;;10.93;8.20;;;;;;;7.13;56.37;95224.26;824185;71;30714;-81
2021/11/19 07:01:17;;;;;;;11.30;7.85;;;;;;;7.39;56.27;95237.02;830373;70;29737;-86
2021/11/19 07:16:17;;;;;;;9.00;7.17;;;;;;;7.63;56.24;95244.00;828069;71;32595;-86
2021/11/19 07:31:20;;;;;;;9.78;7.42;;;;;;;7.77;56.14;95258.73;829802;70;32628;-84
2021/11/19 07:46:20;;;;;;;11.80;9.40;;;;;;;7.79;56.91;95265.80;826063;69;32940;-83
2021/11/19 08:01:21;;;;;;;15.20;9.18;;;;;;;7.96;56.97;95261.73;829375;70;32679;-84
2021/11/19 08:16:16;;;;;;;10.00;8.75;;;;;;;8.16;56.73;95266.30;830125;70;29937;-84
2021/11/19 08:31:11;;;;;;;8.80;7.70;;;;;;;8.53;56.19;95266.77;830270;71;29428;-86
2021/11/19 08:46:19;;;;;;;9.40;8.00;;;;;;;8.81;55.90;95269.50;829486;71;31296;-85
2021/11/19 09:16:34;;;;;;;14.58;9.48;;;;;;;;;;835044;71;32807;-85
2021/11/19 09:31:16;;;;;;;11.03;8.80;;;;;;;9.70;53.99;95207.81;829616;71;30230;-86
2021/11/19 09:46:20;;;;;;;9.33;8.30;;;;;;;9.99;53.09;95190.98;827525;71;32787;-85
2021/11/19 10:01:26;;;;;;;9.03;8.10;;;;;;;10.01;51.60;95178.39;829210;71;30245;-85
2021/11/19 10:31:34;;;;;;;7.70;6.90;;;;;;;10.86;48.81;95121.63;830679;71;33337;-84
2021/11/19 10:46:59;;;;;;;8.33;7.40;;;;;;;11.10;47.51;95093.59;831861;71;32756;-83
2021/11/19 11:01:28;;;;;;;8.00;6.95;;;;;;;10.75;48.29;95096.75;825753;71;32794;-82
2021/11/19 11:16:23;;;;;;;7.15;6.00;;;;;;;10.37;48.87;95084.65;830337;71;31956;-80
2021/11/19 11:31:26;;;;;;;8.30;7.42;;;;;;;10.30;49.58;95079.44;830504;71;32032;-83
2021/11/19 12:01:46;;;;;;;8.98;8.00;;;;;;;9.95;50.14;95064.11;836290;70;32659;-85
2021/11/19 12:17:00;;;;;;;11.60;9.10;;;;;;;9.67;50.67;95061.09;835600;71;32713;-86
2021/11/19 12:31:42;;;;;;;9.98;8.03;;;;;;;9.28;52.04;95038.13;834272;71;33430;-87
2021/11/19 12:46:46;;;;;;;14.35;8.83;;;;;;;9.13;51.95;95029.78;835060;71;32736;-85
2021/11/19 13:01:40;;;;;;;8.90;8.00;;;;;;;9.15;52.12;161065.83;836185;70;33303;-84
2021/11/19 13:16:35;;;;;;;10.88;9.15;;;;;;;9.43;51.88;95011.91;828533;71;32749;-86
2021/11/19 13:31:38;;;;;;;10.53;9.43;;;;;;;9.12;52.26;94989.47;827778;71;32790;-89
2021/11/19 13:46:50;;;;;;;10.75;9.05;;;;;;;8.81;52.74;123554.15;796497;72;32906;-84
2021/11/19 14:01:13;;;;;;;12.40;9.48;;;;;;;;;;802262;74;30592;-86
2021/11/19 14:16:31;;;;;;;10.55;9.18;;;;;;;;;;802246;74;32905;-85
2021/11/19 14:31:29;;;;;;;10.58;8.53;;;;;;;8.18;54.82;95044.65;828190;71;33045;-87
2021/11/19 14:46:25;;;;;;;10.48;8.60;;;;;;;7.96;55.62;95043.02;828777;71;32738;-87
2021/11/19 15:16:39;;;;;;;10.45;8.98;;;;;;;7.28;56.74;95031.75;827241;71;32726;-77
2021/11/19 15:31:27;;;;;;;9.63;8.63;;;;;;;6.98;57.57;95054.03;835601;69;30116;-78
2021/11/19 15:46:33;;;;;;;12.15;8.80;;;;;;;6.80;58.58;95080.76;827164;71;32713;-78
2021/11/19 16:01:55;;;;;;;15.03;10.75;;;;;;;6.73;59.42;95088.52;833727;71;32773;-78
2021/11/19 16:16:44;;;;;;;12.98;10.40;;;;;;;6.65;60.51;95066.80;822534;71;32826;-78
2021/11/19 16:31:14;;;;;;;19.87;11.78;;;;;;;6.59;61.15;95056.88;820572;71;31097;-78
2021/11/19 16:46:17;;;;;;;14.80;9.28;;;;;;;6.59;61.80;95057.65;823845;71;29794;-78
2021/11/19 17:01:12;;;;;;;12.53;8.98;;;;;;;6.59;62.10;95051.66;820433;71;29891;-80
2021/11/19 17:16:23;;;;;;;12.68;9.40;;;;;;;6.62;62.59;95044.10;818838;71;31174;-80
2021/11/19 17:31:10;;;;;;;16.75;11.15;;;;;;;6.72;62.80;95027.76;827712;71;30280;-76
2021/11/19 17:46:21;;;;;;;14.00;10.50;;;;;;;6.74;63.60;95013.95;827529;71;32821;-76
2021/11/19 18:01:17;;;;;;;10.43;9.33;;;;;;;6.78;64.26;95034.58;833486;71;32731;-79
2021/11/19 18:16:19;;;;;;;12.95;9.88;;;;;;;6.81;64.88;95040.62;822500;71;32964;-80
2021/11/19 18:31:22;;;;;;;10.68;9.20;;;;;;;6.86;65.12;95061.25;819089;71;32850;-80
2021/11/19 18:46:32;;;;;;;17.70;8.83;;;;;;;6.95;65.19;95050.08;821542;71;32977;-78
2021/11/19 19:01:14;;;;;;;14.10;8.13;;;;;;;7.12;64.65;95032.21;828915;71;30105;-80
2021/11/19 19:16:20;;;;;;;10.45;8.28;;;;;;;7.25;64.43;95046.63;835103;71;32731;-79
2021/11/19 19:31:21;;;;;;;9.95;7.87;;;;;;;7.41;64.05;95045.14;828435;71;32752;-78
2021/11/19 19:46:10;;;;;;;12.35;8.05;;;;;;;7.49;63.85;95036.05;823710;71;30960;-81
2021/11/19 20:01:11;;;;;;;16.48;9.43;;;;;;;7.56;63.94;95027.48;824071;70;27902;-78
2021/11/19 20:16:11;;;;;;;9.93;7.83;;;;;;;7.58;64.04;95030.63;829981;71;29679;-79
2021/11/19 20:31:18;;;;;;;12.53;8.00;;;;;;;7.63;64.28;95033.23;823157;71;32211;-78
2021/11/19 20:46:11;;;;;;;10.80;7.35;;;;;;;7.68;64.50;95039.52;835609;70;29763;-79
2021/11/19 21:16:11;;;;;;;11.35;8.90;;;;;;;7.75;65.24;95013.97;835673;70;30307;-78
2021/11/19 21:31:21;;;;;;;12.80;8.20;;;;;;;7.82;65.45;95007.44;835698;71;32699;-81
2021/11/19 21:46:15;;;;;;;9.15;7.53;;;;;;;7.86;65.53;95019.47;835588;70;32762;-78
2021/11/19 22:01:18;;;;;;;10.82;7.72;;;;;;;7.84;65.90;95009.80;829473;70;32633;-81
2021/11/19 22:16:19;;;;;;;10.70;8.33;;;;;;;7.81;66.65;95016.33;835704;71;32774;-81
2021/11/19 22:31:11;;;;;;;11.73;8.58;;;;;;;7.79;67.09;94966.70;829801;71;29354;-79
2021/11/19 22:46:15;;;;;;;11.85;9.25;;;;;;;7.80;67.78;94974.25;829504;71;29933;-79
2021/11/19 23:01:14;;;;;;;12.40;9.45;;;;;;;7.82;68.44;94976.62;829708;71;29410;-80
2021/11/19 23:16:31;;;;;;;14.30;11.05;;;;;;;7.83;68.90;94960.69;834178;71;32880;-76
2021/11/19 23:31:18;;;;;;;11.53;9.20;;;;;;;7.86;69.22;94946.32;828103;71;30370;-78
2021/11/19 23:46:12;;;;;;;16.20;10.30;;;;;;;7.83;69.69;94953.38;827936;71;30243;-79
